Time;durP1;ratioP1;P1;durP2;ratioP2;P2;SDS_P1;SDS_P2;PMS_P1;PMS_P2;Temp;Humidity;BMP_temperature;BMP_pressure;BME280_temperature;BME280_humidity;BME280_pressure;Samples;Min_cycle;Max_cycle;Signal;HPM_P1;HPM_P2
2021/01/04 00:01:05;;;;;;;55.28;24.67;;;1.70;90.90;;;;;;5023524;28;20030;-73
2021/01/04 00:03:34;;;;;;;47.40;23.90;;;1.30;91.10;;;;;;5016077;28;20076;-73
2021/01/04 00:06:24;;;;;;;44.72;23.52;;;1.30;91.90;;;;;;5033827;28;20022;-73
2021/01/04 00:09:33;;;;;;;48.42;23.05;;;1.40;91.50;;;;;;5032724;28;20089;-74
2021/01/04 00:12:09;;;;;;;46.33;22.80;;;1.50;91.60;;;;;;5031419;28;20035;-74
2021/01/04 00:14:54;;;;;;;48.03;24.65;;;1.80;91.50;;;;;;5033583;28;20030;-73
2021/01/04 00:17:25;;;;;;;48.92;25.20;;;2.00;90.40;;;;;;5032439;28;20056;-73
2021/01/04 00:20:09;;;;;;;45.67;24.27;;;2.10;90.40;;;;;;5033853;28;20431;-74
2021/01/04 00:22:59;;;;;;;43.63;21.73;;;1.90;90.30;;;;;;5032371;28;20033;-74
2021/01/04 00:25:29;;;;;;;50.03;24.50;;;1.90;91.40;;;;;;5033410;28;20071;-74
2021/01/04 00:28:04;;;;;;;50.47;23.55;;;1.90;90.60;;;;;;5033428;28;20512;-73
2021/01/04 00:31:12;;;;;;;49.90;25.65;;;1.70;90.40;;;;;;5033386;28;20051;-73
2021/01/04 00:33:37;;;;;;;51.15;24.80;;;1.80;91.30;;;;;;5030107;28;20048;-74
2021/01/04 00:36:19;;;;;;;52.35;24.70;;;1.90;90.60;;;;;;5033039;28;20102;-74
2021/01/04 00:39:22;;;;;;;54.35;25.23;;;2.00;90.10;;;;;;5015344;28;20029;-73
2021/01/04 00:42:22;;;;;;;47.85;23.75;;;1.80;90.90;;;;;;5033057;28;20072;-73
2021/01/04 00:44:48;;;;;;;55.55;24.17;;;2.00;90.80;;;;;;5033085;28;20087;-74
2021/01/04 00:47:28;;;;;;;52.03;26.55;;;2.00;90.20;;;;;;5033031;28;20029;-73
2021/01/04 00:50:04;;;;;;;51.03;25.65;;;2.10;90.30;;;;;;5032824;28;20500;-73
2021/01/04 00:52:46;;;;;;;43.08;22.77;;;2.10;89.80;;;;;;5031732;28;20033;-74
2021/01/04 00:55:30;;;;;;;;;;;2.20;89.90;;;;;;5033160;28;20043;-73
2021/01/04 00:58:22;;;;;;;50.17;24.00;;;1.90;89.60;;;;;;5032798;28;20385;-74
2021/01/04 01:00:59;;;;;;;48.83;24.40;;;1.80;90.60;;;;;;5031705;28;20045;-74
2021/01/04 01:03:31;;;;;;;50.00;25.05;;;1.90;90.70;;;;;;5031572;28;20026;-74
2021/01/04 01:06:07;;;;;;;50.42;25.52;;;1.90;90.30;;;;;;5032506;28;20395;-74
2021/01/04 01:08:35;;;;;;;49.10;24.48;;;1.80;90.00;;;;;;5014643;28;20025;-74
2021/01/04 01:11:08;;;;;;;52.33;24.08;;;1.70;90.60;;;;;;5031279;28;20028;-74
2021/01/04 01:14:12;;;;;;;48.88;25.33;;;1.60;91.00;;;;;;5031337;28;20060;-73
2021/01/04 01:16:38;;;;;;;53.50;25.70;;;1.60;90.90;;;;;;5031155;28;20026;-73
2021/01/04 01:19:43;;;;;;;51.80;25.55;;;1.80;91.40;;;;;;5032327;28;20051;-74
2021/01/04 01:22:23;;;;;;;47.08;25.25;;;1.80;90.60;;;;;;5009955;28;20432;-74
2021/01/04 01:24:49;;;;;;;51.35;24.90;;;1.90;90.70;;;;;;5031992;28;20092;-74
2021/01/04 01:27:24;;;;;;;51.50;23.67;;;2.10;90.60;;;;;;5014502;28;20032;-73
2021/01/04 01:30:04;;;;;;;48.17;24.00;;;2.20;90.10;;;;;;5032159;28;20025;-73
2021/01/04 01:33:04;;;;;;;51.65;24.25;;;2.00;89.80;;;;;;5030951;28;20036;-74
2021/01/04 01:36:01;;;;;;;49.67;24.38;;;2.00;90.10;;;;;;5031960;28;20032;-74
2021/01/04 01:38:47;;;;;;;49.90;24.67;;;2.00;90.50;;;;;;5030792;28;20493;-74
2021/01/04 01:41:28;;;;;;;50.67;25.15;;;2.20;90.00;;;;;;5030732;28;20018;-74
2021/01/04 01:44:16;;;;;;;52.45;24.25;;;2.10;89.10;;;;;;5030644;28;20293;-73
2021/01/04 01:47:02;;;;;;;46.00;23.52;;;2.20;89.40;;;;;;5030562;23;20413;-76
2021/01/04 01:49:48;;;;;;;44.42;23.38;;;2.20;89.60;;;;;;5013113;28;20037;-77
2021/01/04 01:52:45;;;;;;;47.65;25.13;;;2.40;89.10;;;;;;5045602;28;20052;-77
2021/01/04 01:55:46;;;;;;;48.38;24.00;;;2.40;88.50;;;;;;5013649;28;20021;-76
2021/01/04 01:58:33;;;;;;;50.90;24.85;;;2.20;88.90;;;;;;4994936;28;20098;-77
2021/01/04 02:01:30;;;;;;;47.00;24.45;;;2.30;89.10;;;;;;5027201;28;20049;-76
2021/01/04 02:04:25;;;;;;;48.55;24.63;;;2.20;88.30;;;;;;5012154;28;20038;-77
2021/01/04 02:07:01;;;;;;;46.75;23.15;;;2.30;89.00;;;;;;5012737;28;20539;-77
2021/01/04 02:09:33;;;;;;;50.03;24.52;;;2.30;89.10;;;;;;5013605;28;20030;-77
2021/01/04 02:12:29;;;;;;;40.58;19.83;;;2.30;88.50;;;;;;5012903;28;20493;-77
2021/01/04 02:15:08;;;;;;;53.13;25.65;;;2.20;89.20;;;;;;4984998;28;20030;-75
2021/01/04 02:17:48;;;;;;;47.47;24.17;;;1.90;89.10;;;;;;5011390;28;20036;-78
2021/01/04 02:20:36;;;;;;;49.95;24.70;;;1.80;89.70;;;;;;5011734;28;20026;-77
2021/01/04 02:23:40;;;;;;;48.28;25.17;;;1.80;90.40;;;;;;4995296;28;20051;-77
2021/01/04 02:26:23;;;;;;;45.78;24.27;;;2.00;90.30;;;;;;5011264;28;20034;-77
2021/01/04 02:28:54;;;;;;;46.22;23.48;;;2.00;88.90;;;;;;5011659;28;20210;-77
2021/01/04 02:31:20;;;;;;;45.25;24.00;;;2.00;90.10;;;;;;5044725;28;20396;-78
2021/01/04 02:33:46;;;;;;;57.17;24.60;;;2.00;90.00;;;;;;5012932;28;20022;-77
2021/01/04 02:36:13;;;;;;;45.80;24.10;;;2.00;90.10;;;;;;5011443;28;20385;-76
2021/01/04 02:38:45;;;;;;;48.65;25.20;;;1.70;90.00;;;;;;5010930;28;20072;-76
2021/01/04 02:41:12;;;;;;;45.10;24.25;;;1.60;90.30;;;;;;5012828;28;20200;-76
2021/01/04 02:43:38;;;;;;;47.58;25.50;;;1.50;90.30;;;;;;5011163;28;20022;-77
2021/01/04 02:46:09;;;;;;;53.63;25.38;;;1.60;90.70;;;;;;5011223;28;20066;-77
2021/01/04 02:49:05;;;;;;;54.38;24.90;;;1.70;90.10;;;;;;5012299;28;20033;-76
2021/01/04 02:51:38;;;;;;;45.38;24.20;;;1.80;90.30;;;;;;5011115;28;20096;-76
2021/01/04 02:54:42;;;;;;;43.83;24.08;;;1.90;89.40;;;;;;5010821;28;20053;-76
2021/01/04 02:57:19;;;;;;;51.70;26.60;;;1.80;89.80;;;;;;4989952;28;20065;-77
2021/01/04 02:59:53;;;;;;;57.20;26.35;;;1.70;90.30;;;;;;5011085;28;20022;-78
2021/01/04 03:02:31;;;;;;;54.65;26.77;;;1.80;90.20;;;;;;5043677;28;20072;-76
2021/01/04 03:04:58;;;;;;;57.78;29.15;;;1.70;90.30;;;;;;5012647;28;20022;-77
2021/01/04 03:07:30;;;;;;;60.90;29.17;;;1.70;90.60;;;;;;5012254;28;20037;-77
2021/01/04 03:09:58;;;;;;;58.25;28.17;;;1.70;90.90;;;;;;5010709;28;20030;-76
2021/01/04 03:12:28;;;;;;;62.85;28.67;;;1.80;91.20;;;;;;5011085;28;20032;-78
2021/01/04 03:15:09;;;;;;;61.63;28.63;;;1.90;91.40;;;;;;5010915;28;20030;-77
2021/01/04 03:17:47;;;;;;;55.97;28.13;;;2.10;91.00;;;;;;5044082;28;20516;-76
2021/01/04 03:20:18;;;;;;;64.10;31.40;;;2.00;90.30;;;;;;5012191;28;20133;-77
2021/01/04 03:22:46;;;;;;;63.05;30.60;;;1.90;91.30;;;;;;5010941;28;20057;-76
2021/01/04 03:25:21;;;;;;;66.43;30.75;;;1.90;91.20;;;;;;4993956;28;20037;-78
2021/01/04 03:27:47;;;;;;;67.07;31.45;;;1.90;90.90;;;;;;5012471;28;20037;-77
2021/01/04 03:30:14;;;;;;;57.65;30.00;;;1.90;91.00;;;;;;5012014;28;20105;-77
2021/01/04 03:32:40;;;;;;;59.85;30.92;;;1.80;90.80;;;;;;4995156;28;20030;-76
2021/01/04 03:35:07;;;;;;;62.42;31.38;;;1.90;91.10;;;;;;5012410;28;20065;-76
2021/01/04 03:37:33;;;;;;;58.97;29.00;;;1.80;91.20;;;;;;5044389;28;20037;-77
2021/01/04 03:39:58;;;;;;;58.55;29.27;;;1.70;91.60;;;;;;5011466;28;20022;-77
2021/01/04 03:42:24;;;;;;;59.75;27.40;;;1.70;91.60;;;;;;5011149;28;20437;-77
2021/01/04 03:44:50;;;;;;;58.15;28.70;;;1.70;91.70;;;;;;5011808;28;20022;-76
2021/01/04 03:47:16;;;;;;;65.70;31.83;;;1.90;91.60;;;;;;5014390;28;20037;-77
2021/01/04 03:49:41;;;;;;;59.28;29.70;;;2.00;91.30;;;;;;5015601;28;20061;-77
2021/01/04 03:52:07;;;;;;;65.97;32.13;;;2.00;91.10;;;;;;5014710;28;20022;-77
2021/01/04 03:54:33;;;;;;;65.63;31.20;;;1.90;90.90;;;;;;5013841;28;20088;-77
2021/01/04 03:56:58;;;;;;;56.10;28.38;;;2.00;91.20;;;;;;5015266;28;20022;-77
2021/01/04 03:59:24;;;;;;;62.17;29.60;;;1.90;91.10;;;;;;5013866;28;20037;-77
2021/01/04 04:01:52;;;;;;;55.67;29.02;;;1.90;91.20;;;;;;5015407;28;20034;-77
2021/01/04 04:04:18;;;;;;;58.15;29.30;;;1.90;91.00;;;;;;5015327;28;20029;-78
2021/01/04 04:06:44;;;;;;;63.28;31.27;;;1.80;91.00;;;;;;5014942;28;20026;-77
2021/01/04 04:09:12;;;;;;;61.88;29.63;;;1.80;91.10;;;;;;5013896;28;20022;-78
2021/01/04 04:11:37;;;;;;;63.38;31.52;;;1.90;91.00;;;;;;5013720;28;20033;-76
2021/01/04 04:14:04;;;;;;;61.45;29.45;;;1.70;90.40;;;;;;5013767;28;20022;-77
2021/01/04 04:16:31;;;;;;;59.03;30.48;;;1.60;91.40;;;;;;5046519;28;20392;-76
2021/01/04 04:18:56;;;;;;;62.33;28.88;;;1.60;91.70;;;;;;5015209;28;20026;-77
2021/01/04 04:21:22;;;;;;;67.50;31.63;;;1.70;91.40;;;;;;5029880;28;20029;-77
2021/01/04 04:23:48;;;;;;;63.13;30.58;;;1.60;91.80;;;;;;5015505;28;20093;-77
2021/01/04 04:26:20;;;;;;;61.33;30.35;;;1.50;91.90;;;;;;5014599;28;20112;-76
2021/01/04 04:28:46;;;;;;;65.72;31.40;;;1.40;92.00;;;;;;5014786;28;20452;-76
2021/01/04 04:31:13;;;;;;;62.45;30.35;;;1.40;92.00;;;;;;5013269;28;20068;-77
2021/01/04 04:33:39;;;;;;;57.17;30.13;;;1.20;92.50;;;;;;5013298;28;20422;-77
2021/01/04 04:36:06;;;;;;;59.40;31.05;;;1.40;92.50;;;;;;5014187;28;20112;-77
2021/01/04 04:38:32;;;;;;;58.65;31.80;;;1.60;92.10;;;;;;5014690;28;20168;-76
2021/01/04 04:40:58;;;;;;;63.95;31.02;;;1.50;92.40;;;;;;5012974;28;20073;-77
2021/01/04 04:43:41;;;;;;;65.18;31.42;;;1.70;91.90;;;;;;5013452;28;20055;-77
2021/01/04 04:46:18;;;;;;;63.45;31.85;;;1.70;92.10;;;;;;5014017;28;20045;-76
2021/01/04 04:48:55;;;;;;;64.28;32.28;;;1.50;91.80;;;;;;5029342;28;20489;-77
2021/01/04 04:52:02;;;;;;;63.63;32.10;;;1.40;91.80;;;;;;5014044;28;20026;-76
2021/01/04 04:55:15;;;;;;;66.05;31.83;;;1.30;91.80;;;;;;5011597;28;20078;-77
2021/01/04 04:58:02;;;;;;;60.72;28.80;;;1.30;92.70;;;;;;5010011;28;20042;-77
2021/01/04 05:00:49;;;;;;;57.97;28.95;;;1.40;91.90;;;;;;5045982;28;20486;-77
2021/01/04 05:03:33;;;;;;;61.53;30.90;;;1.40;92.10;;;;;;5013659;28;20358;-78
2021/01/04 05:06:10;;;;;;;57.83;30.30;;;1.40;92.50;;;;;;5013057;28;20447;-78
2021/01/04 05:09:07;;;;;;;60.22;30.50;;;1.50;92.40;;;;;;5013827;28;20076;-77
2021/01/04 05:11:37;;;;;;;56.92;28.77;;;1.60;92.10;;;;;;5011903;28;20033;-74
2021/01/04 05:14:10;;;;;;;56.42;29.98;;;1.70;92.10;;;;;;5012735;28;20425;-75
2021/01/04 05:17:09;;;;;;;58.05;28.20;;;1.70;91.90;;;;;;5012907;28;20050;-74
2021/01/04 05:20:10;;;;;;;55.50;27.63;;;1.50;91.50;;;;;;5044505;28;20022;-74
2021/01/04 05:22:54;;;;;;;55.13;28.80;;;1.60;91.70;;;;;;5013381;28;20042;-77
2021/01/04 05:25:32;;;;;;;56.28;30.10;;;1.60;91.90;;;;;;5046191;28;20029;-75
2021/01/04 05:28:17;;;;;;;54.15;29.55;;;1.60;92.00;;;;;;5014035;28;20022;-78
2021/01/04 05:31:01;;;;;;;58.65;30.35;;;1.50;92.10;;;;;;5045974;28;20032;-76
2021/01/04 05:33:44;;;;;;;59.92;30.40;;;1.60;91.80;;;;;;5013502;28;20033;-77
2021/01/04 05:36:26;;;;;;;57.05;31.10;;;1.60;92.00;;;;;;5013812;28;20030;-77
2021/01/04 05:39:02;;;;;;;;;;;1.60;91.80;;;;;;5014353;28;20105;-77
2021/01/04 05:41:37;;;;;;;57.10;28.73;;;1.50;91.20;;;;;;5012095;28;19932;-77
2021/01/04 05:44:18;;;;;;;57.80;28.15;;;1.40;91.10;;;;;;5044704;28;20022;-76
2021/01/04 05:46:53;;;;;;;51.85;27.48;;;1.40;91.80;;;;;;5013239;28;20116;-77
2021/01/04 05:49:28;;;;;;;52.47;27.73;;;1.40;91.60;;;;;;5012056;28;20030;-76
2021/01/04 05:51:54;;;;;;;52.40;27.58;;;1.30;91.10;;;;;;5011881;28;20497;-77
2021/01/04 05:54:35;;;;;;;62.55;29.23;;;1.20;91.90;;;;;;5012872;28;20026;-77
2021/01/04 05:57:07;;;;;;;55.95;31.02;;;1.20;91.40;;;;;;5013416;28;20033;-77
2021/01/04 05:59:33;;;;;;;55.33;29.38;;;1.20;92.00;;;;;;5012864;28;20034;-77
2021/01/04 06:02:04;;;;;;;56.15;29.33;;;1.20;92.10;;;;;;5012787;28;20029;-77
2021/01/04 06:04:30;;;;;;;61.25;30.13;;;1.30;91.90;;;;;;5027966;28;20359;-76
2021/01/04 06:07:02;;;;;;;59.38;30.73;;;1.50;91.80;;;;;;5011722;28;20040;-76
2021/01/04 06:09:29;;;;;;;55.10;29.52;;;1.60;91.30;;;;;;5012674;28;20152;-76
2021/01/04 06:12:06;;;;;;;59.50;30.83;;;1.70;90.90;;;;;;5011669;28;20116;-76
2021/01/04 06:14:34;;;;;;;54.90;29.65;;;1.70;91.10;;;;;;5044417;28;20021;-75
2021/01/04 06:17:26;;;;;;;62.80;30.90;;;1.60;90.90;;;;;;5012450;28;20034;-76
2021/01/04 06:19:52;;;;;;;53.77;28.87;;;1.60;91.00;;;;;;5012635;28;20482;-76
2021/01/04 06:22:28;;;;;;;62.20;33.30;;;1.60;91.20;;;;;;5012783;28;20303;-77
2021/01/04 06:25:02;;;;;;;59.83;30.42;;;1.40;91.50;;;;;;5044511;28;20074;-77
2021/01/04 06:27:35;;;;;;;56.67;29.85;;;1.50;91.30;;;;;;5012542;28;20485;-76
2021/01/04 06:30:25;;;;;;;58.20;31.38;;;1.40;91.50;;;;;;5012655;28;20100;-76
2021/01/04 06:32:52;;;;;;;64.57;33.17;;;1.30;91.40;;;;;;5012331;28;20026;-76
2021/01/04 06:35:27;;;;;;;60.17;31.02;;;1.20;91.80;;;;;;5012388;28;20029;-76
2021/01/04 06:38:22;;;;;;;65.80;32.83;;;1.20;91.80;;;;;;5011301;28;20045;-76
2021/01/04 06:40:48;;;;;;;67.03;31.70;;;1.10;92.00;;;;;;5012248;28;20026;-77
2021/01/04 06:43:29;;;;;;;57.78;29.17;;;1.00;92.20;;;;;;5012293;28;20025;-77
2021/01/04 06:46:01;;;;;;;65.55;31.10;;;0.90;92.40;;;;;;5010733;28;20414;-77
2021/01/04 06:48:45;;;;;;;59.08;29.23;;;0.90;93.00;;;;;;5011137;28;20101;-78
2021/01/04 06:51:16;;;;;;;59.83;29.77;;;1.20;92.70;;;;;;5011009;28;20037;-77
2021/01/04 06:54:41;;;;;;;61.00;31.80;;;1.30;92.60;;;;;;5044062;28;20043;-77
2021/01/04 06:57:22;;;;;;;62.15;30.50;;;1.30;92.50;;;;;;5008103;28;20403;-77
2021/01/04 07:00:16;;;;;;;63.80;32.10;;;1.40;92.40;;;;;;5012739;28;20383;-76
2021/01/04 07:03:07;;;;;;;57.33;29.98;;;1.40;92.00;;;;;;5012075;28;20046;-76
2021/01/04 07:05:50;;;;;;;64.35;30.17;;;1.50;92.50;;;;;;5012596;28;20020;-77
2021/01/04 07:08:53;;;;;;;59.97;29.27;;;1.40;92.20;;;;;;5012139;28;20057;-77
2021/01/04 07:11:46;;;;;;;57.63;28.83;;;1.40;92.10;;;;;;5044028;28;20080;-77
2021/01/04 07:14:24;;;;;;;61.80;30.35;;;1.30;91.90;;;;;;5011704;28;20026;-76
2021/01/04 07:17:01;;;;;;;60.63;30.60;;;1.20;92.20;;;;;;5011140;28;20104;-75
2021/01/04 07:19:45;;;;;;;64.13;30.85;;;1.10;92.60;;;;;;5025835;28;20508;-75
2021/01/04 07:22:21;;;;;;;57.28;29.50;;;1.10;92.50;;;;;;5013574;28;20062;-75
2021/01/04 07:25:43;;;;;;;59.40;30.70;;;0.90;92.90;;;;;;5013320;28;20026;-75
2021/01/04 07:28:27;;;;;;;48.60;22.73;;;1.00;92.70;;;;;;4995600;28;20037;-75
2021/01/04 07:31:05;;;;;;;61.75;29.98;;;1.10;92.90;;;;;;5012091;28;20067;-75
2021/01/04 07:33:41;;;;;;;62.78;32.83;;;1.10;92.60;;;;;;5013390;28;20105;-75
2021/01/04 07:36:22;;;;;;;57.28;28.60;;;1.00;92.90;;;;;;5013066;28;20080;-74
2021/01/04 07:39:20;;;;;;;60.78;29.23;;;0.90;93.50;;;;;;5014088;28;20033;-74
2021/01/04 07:42:05;;;;;;;61.72;31.45;;;1.00;93.50;;;;;;5014377;28;20080;-75
2021/01/04 07:45:02;;;;;;;60.10;29.58;;;1.00;93.10;;;;;;5014074;28;20026;-75
2021/01/04 07:48:04;;;;;;;59.00;29.02;;;1.00;93.00;;;;;;5014304;28;20140;-75
2021/01/04 07:50:45;;;;;;;62.05;29.95;;;1.00;93.30;;;;;;5014002;28;20252;-75
2021/01/04 07:53:41;;;;;;;64.00;30.88;;;1.00;93.50;;;;;;5012962;28;20161;-75
2021/01/04 07:56:56;;;;;;;59.78;30.33;;;1.10;93.20;;;;;;5013826;28;20022;-74
2021/01/04 07:59:33;;;;;;;63.60;30.73;;;1.20;93.00;;;;;;5012779;28;20034;-75
2021/01/04 08:02:20;;;;;;;65.70;30.05;;;1.10;93.10;;;;;;5013982;28;20022;-75
2021/01/04 08:05:14;;;;;;;60.70;31.23;;;1.00;93.30;;;;;;5013609;28;20054;-75
2021/01/04 08:07:58;;;;;;;65.28;29.42;;;0.90;93.90;;;;;;5014488;28;20485;-74
2021/01/04 08:10:49;;;;;;;61.10;29.17;;;0.80;94.40;;;;;;4995832;28;20022;-74
2021/01/04 08:13:52;;;;;;;59.60;27.73;;;0.80;94.20;;;;;;5013834;28;20022;-75
2021/01/04 08:16:28;;;;;;;56.90;28.65;;;0.80;94.70;;;;;;4995864;28;20590;-76
2021/01/04 08:18:58;;;;;;;64.47;29.73;;;0.90;94.30;;;;;;5012156;28;20475;-75
2021/01/04 08:21:54;;;;;;;64.97;30.50;;;0.90;95.00;;;;;;5013317;28;20425;-74
2021/01/04 08:24:30;;;;;;;57.78;28.77;;;0.90;94.50;;;;;;5012112;28;20274;-74
2021/01/04 08:27:25;;;;;;;56.65;28.10;;;0.80;94.20;;;;;;5013150;28;20500;-75
2021/01/04 08:30:21;;;;;;;59.90;29.38;;;0.70;94.30;;;;;;5013406;28;20018;-75
2021/01/04 08:32:51;;;;;;;54.83;28.63;;;0.70;94.20;;;;;;5010988;28;20477;-75
2021/01/04 08:35:30;;;;;;;53.33;28.58;;;0.50;94.40;;;;;;5013374;28;20497;-75
2021/01/04 08:38:17;;;;;;;55.60;27.67;;;0.50;95.20;;;;;;5014506;28;20392;-76
2021/01/04 08:40:56;;;;;;;53.95;28.88;;;0.50;95.60;;;;;;5014923;28;20021;-77
2021/01/04 08:43:43;;;;;;;67.43;31.42;;;0.70;96.50;;;;;;5013372;28;20088;-77
2021/01/04 08:46:21;;;;;;;59.50;28.15;;;0.80;95.20;;;;;;5013294;28;20112;-78
2021/01/04 08:48:52;;;;;;;58.85;29.48;;;0.80;94.80;;;;;;5020708;28;20026;-77
2021/01/04 08:51:24;;;;;;;57.90;29.60;;;0.80;94.50;;;;;;5012302;28;20061;-76
2021/01/04 08:53:55;;;;;;;63.28;30.27;;;0.90;94.20;;;;;;5012882;28;20030;-76
2021/01/04 08:56:21;;;;;;;50.88;25.05;;;0.80;94.80;;;;;;5013498;28;20107;-77
2021/01/04 08:58:48;;;;;;;59.60;29.00;;;0.90;94.80;;;;;;5013775;28;20057;-77
2021/01/04 09:01:58;;;;;;;57.47;28.35;;;1.00;95.30;;;;;;5013373;28;20109;-77
2021/01/04 09:04:35;;;;;;;60.75;29.23;;;1.20;94.10;;;;;;5012244;28;20022;-78
2021/01/04 09:07:15;;;;;;;59.58;28.20;;;1.10;94.50;;;;;;5012113;28;20048;-77
2021/01/04 09:10:14;;;;;;;53.97;27.27;;;0.80;94.20;;;;;;5012840;28;20049;-76
2021/01/04 09:12:52;;;;;;;55.10;24.98;;;0.70;95.30;;;;;;5013040;28;20381;-77
2021/01/04 09:15:20;;;;;;;56.75;27.80;;;0.70;95.50;;;;;;5011334;28;20029;-76
2021/01/04 09:18:01;;;;;;;55.67;27.92;;;0.70;95.40;;;;;;5011346;28;20100;-77
2021/01/04 09:20:43;;;;;;;55.58;27.55;;;0.80;95.60;;;;;;5012412;28;20018;-76
2021/01/04 09:23:32;;;;;;;45.70;24.13;;;0.80;95.60;;;;;;5011371;28;20026;-77
2021/01/04 09:26:00;;;;;;;66.88;31.05;;;0.90;95.80;;;;;;5011156;28;20053;-76
2021/01/04 09:28:34;;;;;;;53.42;28.13;;;0.70;96.40;;;;;;5011375;28;20085;-76
2021/01/04 09:31:00;;;;;;;57.10;28.05;;;0.80;95.90;;;;;;5011242;28;20026;-76
2021/01/04 09:33:26;;;;;;;58.75;27.40;;;0.90;95.40;;;;;;5011901;28;20079;-77
2021/01/04 09:36:01;;;;;;;56.88;28.15;;;0.90;95.00;;;;;;5011304;28;20379;-77
2021/01/04 09:38:27;;;;;;;57.58;28.58;;;1.00;95.40;;;;;;5011207;28;20104;-76
2021/01/04 09:40:56;;;;;;;60.88;28.27;;;0.90;94.80;;;;;;5011463;28;20057;-77
2021/01/04 09:43:30;;;;;;;57.65;26.83;;;1.00;95.10;;;;;;5012526;28;20022;-76
2021/01/04 09:46:19;;;;;;;59.25;27.52;;;1.10;94.80;;;;;;4992060;28;596979;-76
2021/01/04 09:49:28;;;;;;;60.67;28.52;;;1.20;94.60;;;;;;5012265;28;20084;-77
2021/01/04 09:52:02;;;;;;;61.97;28.50;;;1.10;94.40;;;;;;5002962;28;20044;-77
2021/01/04 09:54:42;;;;;;;51.75;27.45;;;1.00;94.70;;;;;;5012897;28;20028;-77
2021/01/04 09:57:09;;;;;;;52.70;24.85;;;0.90;94.40;;;;;;5011988;28;20509;-76
2021/01/04 09:59:43;;;;;;;55.13;27.75;;;0.90;95.00;;;;;;5010576;28;20022;-77
2021/01/04 10:02:35;;;;;;;51.55;27.63;;;1.00;94.50;;;;;;5010923;28;20506;-76
2021/01/04 10:05:05;;;;;;;;;;;0.90;94.30;;;;;;5011304;28;20061;-76
2021/01/04 10:07:33;;;;;;;59.78;27.65;;;0.90;94.50;;;;;;5011752;28;19913;-77
2021/01/04 10:09:59;;;;;;;56.92;28.73;;;0.90;94.80;;;;;;5011642;28;20435;-76
2021/01/04 10:12:28;;;;;;;56.60;27.77;;;0.90;94.60;;;;;;5012608;28;20022;-76
2021/01/04 10:14:57;;;;;;;61.30;28.48;;;0.90;95.20;;;;;;5011200;28;20053;-76
2021/01/04 10:17:28;;;;;;;64.22;27.90;;;1.00;95.10;;;;;;5011342;28;20032;-76
2021/01/04 10:20:04;;;;;;;61.78;28.80;;;1.00;94.70;;;;;;5012719;28;20032;-77
2021/01/04 10:22:37;;;;;;;53.05;26.45;;;1.00;94.70;;;;;;5012533;28;20033;-76
2021/01/04 10:25:38;;;;;;;55.97;26.67;;;0.90;93.80;;;;;;4994478;28;20060;-76
2021/01/04 10:28:04;;;;;;;56.83;27.65;;;0.80;94.30;;;;;;4994056;28;20029;-76
2021/01/04 10:30:31;;;;;;;55.63;26.15;;;0.70;94.30;;;;;;4994629;28;20418;-77
2021/01/04 10:33:08;;;;;;;57.83;28.08;;;0.70;94.60;;;;;;5010706;28;20084;-77
2021/01/04 10:35:34;;;;;;;50.28;26.42;;;0.80;94.50;;;;;;5012207;28;20044;-76
2021/01/04 10:38:05;;;;;;;53.70;26.40;;;0.90;95.00;;;;;;5011928;28;20021;-76
2021/01/04 10:40:42;;;;;;;56.95;26.20;;;0.90;94.30;;;;;;5011612;28;20046;-77
2021/01/04 10:43:08;;;;;;;55.22;27.98;;;0.90;94.50;;;;;;5011411;28;20049;-77
2021/01/04 10:45:39;;;;;;;49.03;25.45;;;0.90;94.50;;;;;;5012825;28;20121;-75
2021/01/04 10:48:26;;;;;;;57.05;27.48;;;0.90;94.40;;;;;;5012394;28;20030;-76
2021/01/04 10:50:57;;;;;;;51.78;26.30;;;1.00;94.50;;;;;;5010178;28;20026;-76
2021/01/04 10:53:35;;;;;;;57.38;27.70;;;1.00;93.50;;;;;;5011550;28;20129;-76
2021/01/04 10:56:16;;;;;;;50.75;26.02;;;0.90;94.50;;;;;;5013166;28;20125;-76
2021/01/04 10:59:02;;;;;;;56.97;27.77;;;0.70;94.70;;;;;;5009840;28;20030;-75
2021/01/04 11:01:35;;;;;;;54.63;26.42;;;0.40;95.30;;;;;;5010725;28;20034;-75
2021/01/04 11:04:10;;;;;;;46.70;23.67;;;0.50;96.20;;;;;;4993712;28;20034;-76
2021/01/04 11:06:42;;;;;;;54.60;27.25;;;0.70;96.10;;;;;;5009861;28;20026;-75
2021/01/04 11:09:12;;;;;;;71.32;34.30;;;0.70;95.30;;;;;;5011198;28;20040;-76
2021/01/04 11:11:50;;;;;;;84.38;35.22;;;0.70;95.00;;;;;;5007308;28;20113;-77
2021/01/04 11:14:20;;;;;;;55.58;27.73;;;0.70;95.30;;;;;;5011288;28;20026;-76
2021/01/04 11:16:53;;;;;;;59.40;27.75;;;0.70;95.50;;;;;;5010803;28;20080;-76
2021/01/04 11:19:30;;;;;;;54.28;27.77;;;0.50;95.10;;;;;;5009698;28;20129;-76
2021/01/04 11:21:56;;;;;;;51.70;26.60;;;0.60;95.50;;;;;;5010886;28;20049;-76
2021/01/04 11:24:22;;;;;;;53.70;25.63;;;0.70;96.00;;;;;;5009678;28;20041;-76
2021/01/04 11:26:47;;;;;;;50.40;24.55;;;0.70;95.10;;;;;;5010889;28;20018;-76
2021/01/04 11:29:14;;;;;;;57.70;29.48;;;0.80;94.90;;;;;;5011340;28;20033;-76
2021/01/04 11:31:40;;;;;;;51.38;26.13;;;0.90;94.50;;;;;;5010703;28;20025;-76
2021/01/04 11:34:06;;;;;;;54.17;25.77;;;1.10;94.30;;;;;;5011094;28;20073;-76
2021/01/04 11:36:32;;;;;;;54.00;24.42;;;1.00;93.40;;;;;;4993521;28;20022;-76
2021/01/04 11:38:58;;;;;;;50.45;26.25;;;1.10;93.30;;;;;;5010814;28;20092;-76
2021/01/04 11:41:24;;;;;;;50.58;24.63;;;1.10;92.60;;;;;;5010969;28;20018;-76
2021/01/04 11:43:50;;;;;;;51.20;24.02;;;1.00;93.00;;;;;;5009477;28;20021;-76
2021/01/04 11:46:18;;;;;;;47.00;24.85;;;1.00;93.20;;;;;;5011046;28;20037;-76
2021/01/04 11:48:44;;;;;;;51.78;23.98;;;1.00;92.70;;;;;;5010823;28;20033;-76
2021/01/04 11:51:15;;;;;;;54.85;25.98;;;1.00;93.00;;;;;;5009607;28;20394;-76
2021/01/04 11:53:41;;;;;;;61.45;25.42;;;0.90;93.30;;;;;;5009505;28;20039;-76
2021/01/04 11:56:07;;;;;;;51.13;25.13;;;1.00;93.60;;;;;;5018285;28;20038;-76
2021/01/04 11:58:39;;;;;;;54.45;23.92;;;1.00;92.90;;;;;;5009314;28;20238;-77
2021/01/04 12:01:05;;;;;;;51.95;24.67;;;0.90;92.50;;;;;;5009568;28;20026;-76
2021/01/04 12:03:31;;;;;;;53.88;25.17;;;1.00;93.00;;;;;;5009523;28;20386;-76
2021/01/04 12:05:57;;;;;;;46.22;22.77;;;1.10;93.00;;;;;;5009314;28;20022;-76
2021/01/04 12:08:23;;;;;;;49.83;24.08;;;1.20;92.90;;;;;;5013544;28;20027;-76
2021/01/04 12:10:49;;;;;;;45.55;23.38;;;1.40;92.70;;;;;;5012665;28;20044;-76
2021/01/04 12:13:14;;;;;;;51.08;24.98;;;1.50;91.80;;;;;;4996955;28;20022;-76
2021/01/04 12:15:40;;;;;;;54.97;24.58;;;1.50;91.40;;;;;;5013989;28;20026;-76
2021/01/04 12:18:06;;;;;;;55.30;24.27;;;1.30;91.10;;;;;;5012792;28;20112;-76
2021/01/04 12:20:32;;;;;;;50.33;23.92;;;1.10;92.20;;;;;;5014023;28;20022;-76
2021/01/04 12:22:57;;;;;;;49.55;23.65;;;1.10;92.20;;;;;;5013318;28;20021;-76
2021/01/04 12:25:23;;;;;;;57.33;24.40;;;1.10;92.40;;;;;;5014164;28;20034;-76
2021/01/04 12:27:49;;;;;;;66.72;25.50;;;1.00;92.50;;;;;;5014524;28;20021;-76
2021/01/04 12:30:15;;;;;;;57.83;25.40;;;0.90;92.10;;;;;;5013961;28;20041;-75
2021/01/04 12:32:41;;;;;;;50.00;24.73;;;0.90;92.70;;;;;;5013769;28;20025;-76
2021/01/04 12:35:11;;;;;;;49.92;24.90;;;0.90;93.20;;;;;;5014099;28;20037;-76
2021/01/04 12:37:38;;;;;;;57.25;26.15;;;1.00;93.00;;;;;;5012500;28;20032;-76
2021/01/04 12:40:11;;;;;;;57.45;25.25;;;1.10;92.50;;;;;;5013708;28;20022;-76
2021/01/04 12:42:39;;;;;;;56.50;25.80;;;1.00;92.40;;;;;;5013338;28;20207;-75
2021/01/04 12:45:06;;;;;;;52.55;24.42;;;0.80;92.60;;;;;;5013369;28;20107;-77
2021/01/04 12:47:32;;;;;;;58.60;25.98;;;0.90;93.30;;;;;;5012093;28;20113;-77
2021/01/04 12:49:58;;;;;;;60.20;28.33;;;0.90;93.00;;;;;;5013579;28;20098;-76
2021/01/04 12:52:23;;;;;;;55.83;26.35;;;0.80;92.80;;;;;;5013146;28;20474;-76
2021/01/04 12:54:49;;;;;;;56.08;24.60;;;0.80;93.40;;;;;;5013299;28;20371;-76
2021/01/04 12:57:15;;;;;;;63.28;24.13;;;0.70;92.90;;;;;;5011726;28;20072;-76
2021/01/04 12:59:41;;;;;;;57.70;25.55;;;0.70;93.50;;;;;;4995812;28;20036;-76
2021/01/04 13:02:08;;;;;;;61.83;26.30;;;0.60;93.90;;;;;;5011904;28;20101;-76
2021/01/04 13:04:39;;;;;;;60.50;28.25;;;0.60;93.90;;;;;;5011396;28;20092;-76
2021/01/04 13:07:05;;;;;;;76.13;30.57;;;0.60;94.20;;;;;;5011707;28;20041;-76
2021/01/04 13:09:31;;;;;;;51.45;25.38;;;0.60;94.20;;;;;;5012909;28;20273;-76
2021/01/04 13:11:57;;;;;;;54.05;24.27;;;0.80;94.00;;;;;;5011963;28;20387;-76
2021/01/04 13:14:23;;;;;;;52.22;23.10;;;1.00;93.50;;;;;;5012813;28;20159;-76
2021/01/04 13:16:49;;;;;;;52.17;23.90;;;1.00;92.50;;;;;;5013027;28;20034;-77
2021/01/04 13:19:16;;;;;;;56.42;24.80;;;0.80;93.30;;;;;;4996082;28;20033;-76
2021/01/04 13:21:42;;;;;;;71.13;26.17;;;0.80;93.40;;;;;;4995864;28;20104;-77
2021/01/04 13:24:11;;;;;;;59.55;25.40;;;0.80;93.20;;;;;;5011905;28;20153;-76
2021/01/04 13:26:44;;;;;;;66.70;26.40;;;0.80;93.20;;;;;;5013651;28;20021;-76